Time;durP1;ratioP1;P1;durP2;ratioP2;P2;SDS_P1;SDS_P2;PMS_P1;PMS_P2;Temp;Humidity;BMP_temperature;BMP_pressure;BME280_temperature;BME280_humidity;BME280_pressure;Samples;Min_cycle;Max_cycle;Signal;HPM_P1;HPM_P2
2022/04/01 00:00:13;;;;;;;13.23;5.75;;;;;;;3.09;100.00;99151.03;5100013;28;20040;-78
2022/04/01 00:02:39;;;;;;;11.63;6.03;;;;;;;3.02;100.00;99152.56;5100563;28;20106;-77
2022/04/01 00:05:06;;;;;;;17.05;6.53;;;;;;;2.77;100.00;99170.38;5099886;28;20024;-78
2022/04/01 00:07:33;;;;;;;13.43;6.07;;;;;;;2.96;100.00;99170.34;5101875;28;20115;-78
2022/04/01 00:10:01;;;;;;;16.13;6.40;;;;;;;3.08;100.00;99162.34;5103364;28;20043;-78
2022/04/01 00:12:28;;;;;;;10.05;5.95;;;;;;;3.05;100.00;99167.84;5101310;28;20024;-77
2022/04/01 00:14:54;;;;;;;13.57;6.60;;;;;;;2.35;100.00;99161.97;5106604;28;20033;-78
2022/04/01 00:17:20;;;;;;;12.48;6.25;;;;;;;2.69;100.00;99161.53;5098929;28;20031;-78
2022/04/01 00:19:46;;;;;;;13.55;6.28;;;;;;;2.85;100.00;99175.69;5101830;28;20028;-78
2022/04/01 00:22:11;;;;;;;10.43;6.10;;;;;;;2.68;100.00;99172.03;5102239;28;20039;-78
2022/04/01 00:24:37;;;;;;;11.82;5.82;;;;;;;2.61;100.00;99181.31;5098727;28;20036;-78
2022/04/01 00:27:03;;;;;;;11.15;6.05;;;;;;;2.54;100.00;99175.88;5102437;28;20019;-77
2022/04/01 00:29:28;;;;;;;11.20;5.68;;;;;;;2.40;100.00;99183.13;5103774;28;20023;-77
2022/04/01 00:31:59;;;;;;;10.50;6.40;;;;;;;2.47;100.00;99185.16;5099714;28;20039;-78
2022/04/01 00:34:29;;;;;;;17.13;5.90;;;;;;;2.54;100.00;99187.06;5103291;28;20039;-78
2022/04/01 00:36:56;;;;;;;15.35;5.85;;;;;;;2.53;100.00;99194.97;5104119;28;20031;-79
2022/04/01 00:39:23;;;;;;;10.82;5.50;;;;;;;2.42;100.00;99183.81;5103012;28;20024;-78
2022/04/01 00:41:51;;;;;;;12.43;5.85;;;;;;;2.34;100.00;99191.44;5099746;28;20038;-79
2022/04/01 00:44:19;;;;;;;15.55;6.55;;;;;;;2.42;100.00;99194.19;5099841;28;20499;-78
2022/04/01 00:46:47;;;;;;;11.82;6.53;;;;;;;2.74;100.00;99170.66;5099790;28;20042;-79
2022/04/01 00:49:14;;;;;;;12.82;6.15;;;;;;;2.63;100.00;99169.88;5098292;28;20028;-84
2022/04/01 00:51:43;;;;;;;14.70;6.47;;;;;;;2.70;100.00;99186.47;5102771;28;20431;-79
2022/04/01 00:54:10;;;;;;;10.98;6.55;;;;;;;2.60;100.00;99188.28;5099588;28;20550;-78
2022/04/01 00:56:37;;;;;;;19.50;7.13;;;;;;;2.69;100.00;99189.22;5101253;28;20028;-78
2022/04/01 00:59:03;;;;;;;12.75;6.30;;;;;;;2.57;100.00;99180.81;5102170;28;20370;-78
2022/04/01 01:01:31;;;;;;;15.50;6.85;;;;;;;2.49;100.00;99175.47;5097689;28;20106;-78
2022/04/01 01:04:02;;;;;;;14.73;6.95;;;;;;;2.31;100.00;99154.66;5098529;28;20361;-78
2022/04/01 01:06:30;;;;;;;13.57;7.07;;;;;;;2.17;100.00;99174.03;5100506;28;20031;-77
2022/04/01 01:08:56;;;;;;;15.48;6.22;;;;;;;2.37;100.00;99175.66;5104692;28;20519;-78
2022/04/01 01:11:22;;;;;;;15.60;7.38;;;;;;;2.41;100.00;99174.41;5101866;28;20035;-78
2022/04/01 01:13:48;;;;;;;13.82;6.82;;;;;;;2.31;100.00;99168.41;5103829;28;20488;-78
2022/04/01 01:16:15;;;;;;;15.88;7.13;;;;;;;2.09;100.00;99144.44;5105973;28;20488;-77
2022/04/01 01:18:42;;;;;;;19.83;7.55;;;;;;;2.31;100.00;99157.25;5100917;28;20535;-77
2022/04/01 01:21:09;;;;;;;17.02;6.38;;;;;;;2.06;100.00;99152.47;5098419;28;20055;-78
2022/04/01 01:23:36;;;;;;;11.85;7.00;;;;;;;2.27;100.00;99178.25;5101447;28;20034;-78
2022/04/01 01:26:03;;;;;;;16.17;7.05;;;;;;;1.92;100.00;99160.63;5098038;28;20042;-78
2022/04/01 01:28:29;;;;;;;12.70;6.47;;;;;;;2.23;100.00;99163.09;5094753;28;20024;-78
2022/04/01 01:30:54;;;;;;;16.40;7.25;;;;;;;1.91;100.00;99165.03;5100956;28;20443;-77
2022/04/01 01:33:24;;;;;;;13.20;7.00;;;;;;;1.89;100.00;99168.69;5096726;28;20379;-79
2022/04/01 01:35:51;;;;;;;15.02;7.32;;;;;;;2.21;100.00;99159.84;5100812;28;20400;-78
2022/04/01 01:38:18;;;;;;;14.35;6.80;;;;;;;2.19;100.00;99162.56;5101686;28;20031;-78
2022/04/01 01:40:43;;;;;;;23.55;7.10;;;;;;;2.10;100.00;99171.97;5098607;28;20122;-78
2022/04/01 01:43:13;;;;;;;15.35;6.85;;;;;;;1.96;100.00;99162.00;5105035;28;20058;-77
2022/04/01 01:45:39;;;;;;;13.60;6.50;;;;;;;2.08;100.00;99165.31;5095983;28;20558;-78
2022/04/01 01:48:05;;;;;;;15.27;7.47;;;;;;;2.06;100.00;99155.06;5102343;28;20024;-78
2022/04/01 01:55:59;;;;;;;12.68;6.38;;;;;;;1.75;100.00;99152.59;5100658;28;20043;-78
2022/04/01 01:58:27;;;;;;;18.20;6.25;;;;;;;1.87;100.00;99163.66;5095550;28;20028;-77
2022/04/01 02:00:52;;;;;;;15.48;6.45;;;;;;;1.74;100.00;99171.66;5100365;28;20034;-77
2022/04/01 02:03:18;;;;;;;13.85;6.35;;;;;;;2.02;100.00;99166.66;5098928;28;20035;-77
2022/04/01 02:05:43;;;;;;;13.63;6.88;;;;;;;1.83;100.00;99178.63;5100456;28;20043;-77
2022/04/01 02:08:09;;;;;;;18.58;7.50;;;;;;;1.87;100.00;99162.81;5100416;28;20035;-77
2022/04/01 02:10:34;;;;;;;10.48;6.05;;;;;;;1.80;100.00;99170.31;5098211;28;20028;-77
2022/04/01 02:13:00;;;;;;;15.57;7.57;;;;;;;1.98;100.00;99165.28;5099412;28;20028;-77
2022/04/01 02:15:25;;;;;;;18.20;7.88;;;;;;;1.79;100.00;99153.16;5091876;28;20055;-77
2022/04/01 02:17:51;;;;;;;14.23;7.32;;;;;;;1.71;100.00;99169.34;5092854;28;20032;-77
2022/04/01 02:20:17;;;;;;;15.15;7.60;;;;;;;1.87;100.00;99176.59;5107878;27;20027;-77
2022/04/01 02:22:47;;;;;;;18.27;8.35;;;;;;;2.00;100.00;99178.91;5084226;28;20111;-77
2022/04/01 02:25:13;;;;;;;20.73;8.98;;;;;;;1.99;100.00;99172.91;5107744;28;20034;-77
2022/04/01 02:27:39;;;;;;;20.90;9.43;;;;;;;1.93;100.00;99165.69;5103867;28;20372;-77
2022/04/01 02:30:14;;;;;;;21.80;8.68;;;;;;;2.11;100.00;99163.22;5100725;28;20381;-77
2022/04/01 02:32:41;;;;;;;25.38;9.05;;;;;;;2.02;100.00;99186.53;5103332;27;20054;-78
2022/04/01 02:35:10;;;;;;;21.35;9.05;;;;;;;2.20;100.00;99192.69;5105400;28;20106;-77
2022/04/01 02:37:36;;;;;;;16.98;8.55;;;;;;;1.93;100.00;99188.16;5082458;28;20032;-77
2022/04/01 02:40:04;;;;;;;18.35;7.68;;;;;;;2.19;100.00;99198.00;5100383;28;20362;-76
2022/04/01 02:42:29;;;;;;;14.32;7.05;;;;;;;2.16;100.00;99187.91;5088476;28;20035;-76
2022/04/01 02:44:56;;;;;;;14.45;6.35;;;;;;;1.95;100.00;99192.25;5103022;28;20064;-79
2022/04/01 02:47:22;;;;;;;15.23;7.13;;;;;;;2.09;100.00;99180.69;5105732;28;20027;-76
2022/04/01 02:49:47;;;;;;;15.23;6.25;;;;;;;2.21;100.00;99201.28;5098873;28;20097;-77
2022/04/01 02:52:13;;;;;;;12.65;5.40;;;;;;;1.88;100.00;99185.16;5097456;28;20080;-80
2022/04/01 02:54:40;;;;;;;14.65;5.53;;;;;;;1.79;100.00;99181.63;5102594;28;20035;-77
2022/04/01 02:57:07;;;;;;;11.07;5.82;;;;;;;1.87;100.00;99189.53;5081757;28;20028;-78
2022/04/01 02:59:33;;;;;;;11.88;5.72;;;;;;;2.10;100.00;99182.31;5098573;28;20032;-77
2022/04/01 03:01:58;;;;;;;19.27;5.43;;;;;;;1.99;100.00;99198.00;5102496;28;20036;-78
2022/04/01 03:04:24;;;;;;;12.18;5.60;;;;;;;2.19;100.00;99193.63;5108327;28;20044;-78
2022/04/01 03:06:49;;;;;;;12.23;5.80;;;;;;;2.08;100.00;99197.16;5101898;28;20111;-77
2022/04/01 03:09:15;;;;;;;12.13;6.18;;;;;;;2.11;100.00;99194.31;5100020;28;20485;-78
2022/04/01 03:11:42;;;;;;;11.82;5.40;;;;;;;2.05;100.00;99215.56;5104462;28;20028;-78
2022/04/01 03:14:09;;;;;;;10.18;5.63;;;;;;;1.98;100.00;99204.94;5099871;28;20036;-78
2022/04/01 03:16:37;;;;;;;11.65;5.07;;;;;;;1.77;100.00;99199.88;5101272;28;20024;-78
2022/04/01 03:19:04;;;;;;;14.38;5.32;;;;;;;2.01;100.00;99203.84;5100900;28;20032;-78
2022/04/01 03:21:34;;;;;;;11.32;5.40;;;;;;;2.26;100.00;99199.09;5098587;28;20440;-78
2022/04/01 03:24:01;;;;;;;11.82;5.13;;;;;;;2.02;100.00;99202.91;5101497;28;20023;-78
2022/04/01 03:26:27;;;;;;;9.57;4.10;;;;;;;1.95;100.00;99201.78;5099804;28;20032;-78
2022/04/01 03:28:53;;;;;;;13.75;4.93;;;;;;;1.90;100.00;99194.44;5102256;28;20081;-79
2022/04/01 03:31:19;;;;;;;11.57;4.35;;;;;;;1.88;100.00;99217.06;5093369;28;20031;-78
2022/04/01 03:33:45;;;;;;;10.07;4.25;;;;;;;1.68;100.00;99216.19;5102564;28;20030;-78
2022/04/01 03:36:11;;;;;;;8.98;3.70;;;;;;;2.02;100.00;99221.03;5100558;28;20111;-78
2022/04/01 03:38:38;;;;;;;10.18;3.92;;;;;;;1.90;100.00;99211.72;5102022;28;20031;-78
2022/04/01 03:41:08;;;;;;;11.77;4.30;;;;;;;2.00;100.00;99225.53;5079362;28;20035;-77
2022/04/01 03:43:37;;;;;;;12.13;4.65;;;;;;;1.50;100.00;99234.13;5098083;28;20032;-77
2022/04/01 03:46:09;;;;;;;6.63;4.20;;;;;;;1.90;100.00;99227.25;5103943;28;20072;-77
2022/04/01 03:49:01;;;;;;;11.68;4.82;;;;;;;1.97;100.00;99226.59;5097750;28;20028;-78
2022/04/01 03:51:29;;;;;;;7.40;4.00;;;;;;;1.66;100.00;99231.84;5100630;28;20075;-77
2022/04/01 03:53:57;;;;;;;11.80;4.60;;;;;;;1.89;100.00;99233.41;5097939;28;20485;-77
2022/04/01 03:56:34;;;;;;;6.07;3.67;;;;;;;1.74;100.00;99228.59;5104925;28;20032;-77
2022/04/01 03:59:08;;;;;;;6.38;3.78;;;;;;;1.73;100.00;99223.56;5099559;28;20047;-78
2022/04/01 04:01:38;;;;;;;8.88;4.20;;;;;;;1.57;100.00;99232.63;5102512;28;20107;-77
2022/04/01 04:04:04;;;;;;;7.63;2.85;;;;;;;1.69;100.00;99223.00;5104091;28;20024;-77
2022/04/01 04:06:32;;;;;;;8.43;3.80;;;;;;;1.64;100.00;99238.13;5100018;28;20036;-78
2022/04/01 04:09:00;;;;;;;9.00;3.47;;;;;;;1.63;100.00;99233.88;5103585;28;20031;-78
2022/04/01 04:11:31;;;;;;;9.48;3.83;;;;;;;1.67;100.00;99235.25;5102876;28;20092;-77
2022/04/01 04:13:58;;;;;;;9.60;3.63;;;;;;;1.71;100.00;99244.38;5099081;28;20036;-77
2022/04/01 04:16:31;;;;;;;7.20;3.78;;;;;;;1.45;100.00;99237.09;5105367;28;20088;-77
2022/04/01 04:19:04;;;;;;;8.05;4.07;;;;;;;1.94;100.00;99236.41;5100417;28;20027;-77
2022/04/01 04:21:36;;;;;;;8.07;3.95;;;;;;;1.63;100.00;99244.25;5100224;28;20050;-77
2022/04/01 04:24:02;;;;;;;8.95;3.90;;;;;;;1.73;100.00;99226.94;5101163;28;20035;-77
2022/04/01 04:26:37;;;;;;;13.15;3.85;;;;;;;1.60;100.00;99234.16;5102122;28;20074;-78
2022/04/01 04:29:12;;;;;;;6.68;3.53;;;;;;;1.89;100.00;99248.94;5102831;28;20032;-76
2022/04/01 04:32:02;;;;;;;8.40;3.47;;;;;;;1.64;100.00;99245.88;5098272;28;20036;-77
2022/04/01 04:34:44;;;;;;;8.10;4.20;;;;;;;1.61;100.00;99231.41;5101910;28;20020;-79
2022/04/01 04:37:14;;;;;;;10.52;3.75;;;;;;;1.71;100.00;99263.34;5096528;28;20431;-76
2022/04/01 04:39:43;;;;;;;8.20;3.70;;;;;;;1.91;100.00;99253.03;5095629;28;20032;-79
2022/04/01 04:42:09;;;;;;;8.63;3.80;;;;;;;1.67;100.00;99250.78;5099564;28;20062;-80
2022/04/01 04:44:36;;;;;;;6.63;4.05;;;;;;;1.69;100.00;99277.34;5101999;28;20077;-78
2022/04/01 04:47:04;;;;;;;12.70;3.83;;;;;;;1.83;100.00;99274.41;5101962;28;20036;-77
2022/04/01 04:49:30;;;;;;;10.05;3.58;;;;;;;1.77;100.00;99272.34;5094129;28;20076;-78
2022/04/01 04:51:57;;;;;;;7.93;3.78;;;;;;;1.58;100.00;99267.09;5100664;28;20039;-78
2022/04/01 04:54:25;;;;;;;6.10;3.67;;;;;;;1.84;100.00;99278.63;5099987;28;20089;-79
2022/04/01 04:56:52;;;;;;;8.18;3.25;;;;;;;1.82;100.00;99267.59;5102581;28;20032;-77
2022/04/01 04:59:20;;;;;;;7.30;4.32;;;;;;;1.59;100.00;99284.28;5103675;28;20039;-77
2022/04/01 05:01:56;;;;;;;7.63;3.83;;;;;;;1.63;100.00;99283.06;5105109;28;20026;-77
2022/04/01 05:04:53;;;;;;;8.77;3.70;;;;;;;1.57;100.00;99286.97;5101948;28;20472;-76
2022/04/01 05:07:53;;;;;;;8.60;4.07;;;;;;;1.58;100.00;99280.03;5098529;28;20099;-78
2022/04/01 05:10:48;;;;;;;8.63;3.80;;;;;;;1.55;100.00;99297.44;5099982;28;20023;-77
2022/04/01 05:13:54;;;;;;;8.35;4.13;;;;;;;1.65;100.00;99284.53;5080491;28;20040;-77
2022/04/01 05:16:41;;;;;;;8.57;4.18;;;;;;;1.75;100.00;99289.75;5098158;28;20031;-77
2022/04/01 05:19:12;;;;;;;9.93;4.13;;;;;;;1.63;100.00;99290.81;5100714;28;20024;-78
2022/04/01 05:21:56;;;;;;;8.57;4.45;;;;;;;1.45;100.00;99294.00;5103222;28;20051;-77
2022/04/01 05:24:27;;;;;;;9.18;4.40;;;;;;;1.63;100.00;99298.56;5100967;28;20027;-77
2022/04/01 05:26:55;;;;;;;9.27;4.60;;;;;;;1.66;100.00;99290.56;5099054;28;20110;-78
2022/04/01 05:29:27;;;;;;;10.45;4.95;;;;;;;1.59;100.00;99304.97;5102787;28;20036;-77
2022/04/01 05:32:05;;;;;;;11.82;5.10;;;;;;;1.68;100.00;99315.34;5092310;28;20075;-77
2022/04/01 05:34:44;;;;;;;8.20;4.95;;;;;;;1.52;100.00;99308.06;5099437;28;20034;-77
2022/04/01 05:37:12;;;;;;;8.50;4.85;;;;;;;1.68;100.00;99304.19;5097270;28;20122;-77
2022/04/01 05:39:39;;;;;;;10.60;5.07;;;;;;;1.83;100.00;99296.88;5092943;28;20031;-77
2022/04/01 05:42:09;;;;;;;7.93;4.10;;;;;;;1.97;100.00;99303.47;5101354;28;20028;-78
2022/04/01 05:44:36;;;;;;;14.80;5.20;;;;;;;1.68;100.00;99299.00;5078235;28;20030;-77
2022/04/01 05:47:03;;;;;;;12.05;5.47;;;;;;;1.69;100.00;99314.41;5101060;28;20035;-76
2022/04/01 05:49:29;;;;;;;9.75;4.85;;;;;;;1.85;100.00;99332.03;5100935;28;20085;-77
2022/04/01 05:51:55;;;;;;;14.00;5.55;;;;;;;1.71;100.00;99314.25;5103188;28;20035;-78
2022/04/01 05:54:22;;;;;;;14.75;7.03;;;;;;;2.02;100.00;99314.25;5106737;28;20070;-77
2022/04/01 05:56:50;;;;;;;34.50;8.73;;;;;;;2.09;100.00;99317.94;5102853;28;20028;-78
2022/04/01 05:59:18;;;;;;;16.25;6.35;;;;;;;1.95;100.00;99306.19;5099889;28;20474;-77
2022/04/01 06:01:47;;;;;;;17.15;7.82;;;;;;;1.90;100.00;99328.22;5098542;28;20535;-78
2022/04/01 06:04:37;;;;;;;12.45;5.85;;;;;;;2.08;100.00;99342.19;5088748;28;20028;-77
2022/04/01 06:07:16;;;;;;;16.90;6.57;;;;;;;1.67;100.00;99333.59;5096984;28;20036;-79
2022/04/01 06:09:42;;;;;;;11.80;6.07;;;;;;;1.66;100.00;99332.75;5102867;28;20078;-77
2022/04/01 06:12:37;;;;;;;12.10;6.30;;;;;;;1.85;100.00;99339.78;5100837;28;20056;-76
2022/04/01 06:15:45;;;;;;;11.68;5.47;;;;;;;1.72;100.00;99357.31;5098936;28;20488;-77
2022/04/01 06:18:49;;;;;;;10.10;5.55;;;;;;;1.71;100.00;99360.84;5085783;28;20040;-76
2022/04/01 06:21:24;;;;;;;14.52;6.13;;;;;;;1.94;100.00;99352.91;5089023;28;20050;-77
2022/04/01 06:23:59;;;;;;;15.48;7.07;;;;;;;1.90;100.00;99364.47;5100123;28;20034;-77
2022/04/01 06:26:28;;;;;;;13.57;5.95;;;;;;;2.13;100.00;99355.53;5106357;28;20123;-77
2022/04/01 06:29:18;;;;;;;15.77;6.57;;;;;;;2.20;100.00;99373.16;5106821;28;20051;-76
2022/04/01 06:32:01;;;;;;;13.63;7.28;;;;;;;2.50;100.00;99361.09;5095590;28;20499;-76
2022/04/01 06:34:47;;;;;;;16.17;6.93;;;;;;;2.15;100.00;99381.31;5094335;28;20393;-76
2022/04/01 06:37:22;;;;;;;19.50;5.82;;;;;;;2.17;100.00;99363.88;5101793;28;20463;-77
2022/04/01 06:40:11;;;;;;;14.52;5.60;;;;;;;2.18;100.00;99362.13;5106533;28;20031;-77
2022/04/01 06:42:38;;;;;;;13.88;5.43;;;;;;;2.03;100.00;99354.72;5104848;28;20032;-76
2022/04/01 06:45:09;;;;;;;12.57;5.50;;;;;;;2.38;100.00;99386.28;5097887;28;20032;-77
2022/04/01 06:47:39;;;;;;;15.88;6.00;;;;;;;2.39;100.00;99369.78;5102720;28;20393;-77
2022/04/01 06:50:05;;;;;;;15.38;5.90;;;;;;;2.45;100.00;99363.25;5104417;28;20476;-76
2022/04/01 06:52:30;;;;;;;10.30;4.65;;;;;;;2.33;100.00;99386.69;5107159;28;20034;-78
2022/04/01 06:54:56;;;;;;;8.45;4.80;;;;;;;2.31;100.00;99365.28;5105909;27;20122;-78
2022/04/01 06:57:22;;;;;;;9.95;4.80;;;;;;;2.48;100.00;99378.53;5092113;28;20043;-78
2022/04/01 06:59:49;;;;;;;12.75;5.28;;;;;;;2.58;100.00;99376.81;5105808;28;20545;-79
2022/04/01 07:02:15;;;;;;;11.05;4.80;;;;;;;2.90;100.00;99388.69;5104500;28;20036;-78
2022/04/01 07:04:40;;;;;;;8.95;4.25;;;;;;;2.49;100.00;99409.50;5083701;28;20024;-79
2022/04/01 07:07:06;;;;;;;10.45;4.80;;;;;;;2.84;100.00;99400.41;5103763;28;20031;-80
2022/04/01 07:09:31;;;;;;;10.25;4.70;;;;;;;2.72;100.00;99407.50;5103154;28;20020;-81
2022/04/01 07:11:59;;;;;;;7.05;4.20;;;;;;;2.88;100.00;99408.75;5103914;28;20028;-81
2022/04/01 07:14:28;;;;;;;7.90;4.45;;;;;;;2.81;100.00;99410.25;5103471;28;20118;-80
2022/04/01 07:16:58;;;;;;;8.73;4.70;;;;;;;2.77;100.00;99419.25;5101148;28;20367;-80
2022/04/01 07:19:24;;;;;;;13.52;4.45;;;;;;;2.67;100.00;99407.09;5103100;28;20040;-80
2022/04/01 07:21:51;;;;;;;8.63;4.50;;;;;;;3.07;100.00;99405.34;5105322;28;20028;-78
2022/04/01 07:24:18;;;;;;;7.22;4.07;;;;;;;2.98;100.00;99416.53;5105274;28;20111;-79
2022/04/01 07:26:45;;;;;;;6.82;4.28;;;;;;;3.11;100.00;99416.25;5098981;28;20076;-81
2022/04/01 07:29:11;;;;;;;8.55;4.35;;;;;;;3.41;100.00;99417.06;5102731;28;20020;-81
2022/04/01 07:34:29;;;;;;;7.28;4.43;;;;;;;3.20;100.00;99415.44;5103724;28;20044;-80
2022/04/01 07:36:55;;;;;;;7.57;4.53;;;;;;;3.43;100.00;99426.31;5098788;28;20050;-81
2022/04/01 07:39:21;;;;;;;5.90;3.67;;;;;;;3.53;100.00;99425.50;5100561;28;20056;-81
2022/04/01 07:41:50;;;;;;;8.15;4.10;;;;;;;3.25;100.00;99422.81;5105815;28;20034;-80
2022/04/01 07:44:16;;;;;;;6.47;4.32;;;;;;;3.88;100.00;99437.06;5100542;28;20028;-80
2022/04/01 07:46:42;;;;;;;7.40;3.88;;;;;;;3.61;100.00;99443.78;5100896;28;20036;-81
2022/04/01 07:49:07;;;;;;;5.40;3.90;;;;;;;3.62;100.00;99450.63;5105134;28;20059;-80
2022/04/01 07:51:33;;;;;;;9.57;3.75;;;;;;;3.64;100.00;99424.53;5097230;28;20147;-80
2022/04/01 07:53:59;;;;;;;5.93;4.10;;;;;;;3.69;100.00;99435.31;5101943;28;20374;-80
2022/04/01 07:56:31;;;;;;;8.68;3.75;;;;;;;3.38;100.00;99427.72;5100365;28;20354;-80
2022/04/01 07:59:00;;;;;;;8.82;4.32;;;;;;;4.14;100.00;99444.22;5101844;28;20566;-79
2022/04/01 08:01:26;;;;;;;6.97;3.92;;;;;;;4.13;100.00;99452.97;5101574;28;20035;-79
2022/04/01 08:03:52;;;;;;;5.65;4.00;;;;;;;3.79;100.00;99443.91;5104678;28;20091;-79
2022/04/01 08:06:18;;;;;;;8.73;4.47;;;;;;;3.72;100.00;99435.03;5101385;28;20031;-79
2022/04/01 08:08:43;;;;;;;9.60;4.65;;;;;;;3.42;100.00;99442.84;5100805;28;20028;-79
2022/04/01 08:11:09;;;;;;;6.13;4.20;;;;;;;3.34;100.00;99454.88;5105722;28;20484;-79
2022/04/01 08:13:36;;;;;;;6.38;4.72;;;;;;;3.39;100.00;99456.13;5106053;28;20032;-79
2022/04/01 08:16:02;;;;;;;10.93;5.50;;;;;;;3.82;100.00;99464.41;5105821;28;20032;-79
2022/04/01 08:18:28;;;;;;;7.45;5.10;;;;;;;3.51;100.00;99458.56;5100686;28;20027;-79
2022/04/01 08:20:53;;;;;;;11.00;5.30;;;;;;;3.47;100.00;99462.41;5099878;28;20085;-79
2022/04/01 08:23:19;;;;;;;8.20;5.38;;;;;;;3.86;100.00;99470.94;5099855;28;20042;-79
2022/04/01 08:25:51;;;;;;;8.15;5.93;;;;;;;3.56;100.00;99472.78;5100015;28;20024;-80
2022/04/01 08:28:17;;;;;;;15.27;6.18;;;;;;;4.22;100.00;99480.69;5094722;28;20457;-80
2022/04/01 08:30:42;;;;;;;9.38;6.20;;;;;;;4.33;100.00;99474.50;5099246;28;20024;-80
2022/04/01 08:33:08;;;;;;;13.35;5.10;;;;;;;5.20;100.00;99499.34;5100045;28;20122;-79
2022/04/01 08:35:34;;;;;;;8.00;4.82;;;;;;;5.05;100.00;99483.41;5102565;28;20389;-79
2022/04/01 08:38:00;;;;;;;6.47;4.60;;;;;;;4.92;100.00;99489.81;5102085;28;20069;-78
2022/04/01 08:40:29;;;;;;;10.10;4.80;;;;;;;5.07;100.00;99486.69;5104080;28;20036;-78
2022/04/01 08:42:56;;;;;;;6.85;4.88;;;;;;;4.72;100.00;99476.94;5097474;28;20035;-77
2022/04/01 08:45:21;;;;;;;5.57;3.90;;;;;;;5.10;100.00;99489.81;5099987;28;20057;-78
2022/04/01 08:47:50;;;;;;;8.25;4.10;;;;;;;5.21;100.00;99503.56;5100918;28;20024;-78
2022/04/01 08:50:15;;;;;;;6.65;4.28;;;;;;;5.30;100.00;99487.06;5102357;28;20381;-78
2022/04/01 08:52:41;;;;;;;9.18;3.80;;;;;;;5.07;100.00;99500.53;5105123;28;20102;-78
2022/04/01 08:55:11;;;;;;;6.70;4.05;;;;;;;4.75;100.00;99511.41;5101722;28;20465;-78
2022/04/01 08:57:38;;;;;;;8.90;4.43;;;;;;;5.04;100.00;99502.59;5103949;28;20111;-78
2022/04/01 09:00:15;;;;;;;7.30;3.83;;;;;;;4.78;100.00;99511.09;5101745;28;20028;-78
2022/04/01 09:02:52;;;;;;;6.30;4.00;;;;;;;4.67;100.00;99512.94;5103556;28;20035;-77
2022/04/01 09:05:19;;;;;;;6.88;4.60;;;;;;;4.74;100.00;99507.16;5078655;28;20035;-78
2022/04/01 09:07:45;;;;;;;9.02;5.20;;;;;;;5.04;100.00;99519.03;5097659;28;20037;-78
2022/04/01 09:10:11;;;;;;;8.05;4.80;;;;;;;4.54;100.00;99517.66;5086462;28;20020;-78
2022/04/01 09:12:51;;;;;;;11.52;5.68;;;;;;;5.31;100.00;99525.16;5098950;28;20032;-78
2022/04/01 09:15:18;;;;;;;9.18;5.65;;;;;;;5.48;100.00;99507.09;5101515;28;20041;-77
2022/04/01 09:17:46;;;;;;;6.53;4.55;;;;;;;5.55;100.00;99523.72;5101987;28;20028;-78
2022/04/01 09:20:14;;;;;;;8.32;4.50;;;;;;;5.70;100.00;99511.03;5102858;28;20432;-78
2022/04/01 09:22:42;;;;;;;6.65;4.35;;;;;;;5.68;100.00;99512.94;5100056;28;20028;-79
2022/04/01 09:25:09;;;;;;;6.15;4.30;;;;;;;6.27;100.00;99513.19;5105044;28;20031;-78
2022/04/01 09:27:39;;;;;;;7.82;3.95;;;;;;;6.51;100.00;99516.91;5097002;28;20039;-79
2022/04/01 09:30:06;;;;;;;5.10;3.60;;;;;;;6.85;100.00;99517.84;5097908;28;20038;-78
2022/04/01 09:32:37;;;;;;;9.48;3.88;;;;;;;6.41;100.00;99511.81;5100087;28;20389;-78
2022/04/01 09:35:03;;;;;;;7.20;3.35;;;;;;;6.72;100.00;99511.28;5102139;28;20400;-79
2022/04/01 09:37:49;;;;;;;6.30;3.33;;;;;;;6.71;100.00;99507.06;5099032;28;20039;-79
2022/04/01 09:40:18;;;;;;;7.38;2.42;;;;;;;6.72;100.00;99523.50;5101724;28;20028;-79
2022/04/01 09:42:52;;;;;;;7.60;3.00;;;;;;;6.06;100.00;99528.38;5103517;28;20031;-78
2022/04/01 09:45:30;;;;;;;8.20;3.85;;;;;;;6.53;100.00;99530.59;5101381;28;20047;-79
2022/04/01 09:48:01;;;;;;;5.47;3.78;;;;;;;7.15;100.00;99519.06;5095896;28;20035;-79
2022/04/01 09:50:44;;;;;;;9.20;4.55;;;;;;;6.37;100.00;99527.91;5103087;28;20044;-79
2022/04/01 09:53:19;;;;;;;7.00;4.47;;;;;;;5.62;100.00;99510.94;5099260;28;20035;-79
2022/04/01 09:55:47;;;;;;;8.70;4.47;;;;;;;5.75;100.00;99519.19;5096913;28;20461;-79
2022/04/01 09:58:15;;;;;;;8.63;3.85;;;;;;;5.91;100.00;99515.88;5102441;28;20032;-79
2022/04/01 10:00:41;;;;;;;8.55;3.92;;;;;;;5.76;100.00;99518.22;5098948;28;20050;-79
2022/04/01 10:03:09;;;;;;;7.78;3.70;;;;;;;5.29;100.00;99525.28;5101672;28;20059;-79
2022/04/01 10:05:36;;;;;;;6.63;3.80;;;;;;;5.54;100.00;99507.31;5105373;28;20036;-80
2022/04/01 10:08:07;;;;;;;5.80;3.40;;;;;;;5.85;100.00;99526.91;5103710;28;20353;-78
2022/04/01 10:10:33;;;;;;;6.18;3.88;;;;;;;5.79;100.00;99517.91;5101123;28;20496;-78
2022/04/01 10:13:09;;;;;;;6.72;3.55;;;;;;;6.00;100.00;99519.34;5099946;28;20075;-79
2022/04/01 10:15:35;;;;;;;7.93;3.42;;;;;;;6.12;100.00;99515.56;5098642;28;20032;-79
2022/04/01 10:18:02;;;;;;;12.15;3.80;;;;;;;5.92;100.00;99527.13;5099078;28;20028;-79
2022/04/01 10:20:34;;;;;;;11.23;4.10;;;;;;;6.03;100.00;99529.50;5099237;28;20074;-80
2022/04/01 10:23:03;;;;;;;6.20;3.92;;;;;;;6.35;100.00;99533.28;5097265;28;20027;-79
2022/04/01 10:25:39;;;;;;;8.80;3.72;;;;;;;6.86;100.00;99516.84;5100471;28;20027;-79
2022/04/01 10:28:06;;;;;;;11.95;4.03;;;;;;;6.98;100.00;99513.00;5097704;28;20066;-79
2022/04/01 10:30:32;;;;;;;5.50;3.40;;;;;;;7.20;100.00;99523.00;5099355;28;20473;-80
2022/04/01 10:32:59;;;;;;;9.68;4.22;;;;;;;7.20;100.00;99525.63;5103951;28;20032;-79
2022/04/01 10:35:26;;;;;;;8.07;3.35;;;;;;;7.62;100.00;99524.69;5093976;28;20043;-80
2022/04/01 10:38:12;;;;;;;6.88;3.53;;;;;;;7.66;100.00;99515.53;5101168;28;20060;-80
2022/04/01 10:40:46;;;;;;;6.88;3.70;;;;;;;7.18;100.00;99517.94;5106097;28;20039;-80
2022/04/01 10:43:21;;;;;;;6.93;3.42;;;;;;;7.18;100.00;99524.97;5105198;28;20032;-80
2022/04/01 10:46:10;;;;;;;5.57;3.10;;;;;;;7.04;100.00;99521.16;5105951;28;20033;-79
2022/04/01 10:51:39;;;;;;;5.43;2.50;;;;;;;7.12;100.00;99529.03;5102948;28;20059;-80
2022/04/01 10:54:14;;;;;;;5.85;2.60;;;;;;;6.99;100.00;99527.69;5105907;28;20027;-79
2022/04/01 10:56:41;;;;;;;5.25;2.25;;;;;;;7.27;100.00;99516.97;5105334;28;20032;-79
2022/04/01 10:59:14;;;;;;;6.45;2.40;;;;;;;7.41;99.77;99494.63;5101267;28;20078;-79
2022/04/01 11:01:52;;;;;;;2.97;1.75;;;;;;;7.58;97.62;99512.94;5096815;28;20051;-79
2022/04/01 11:04:17;;;;;;;4.88;2.40;;;;;;;7.60;100.00;99510.13;5098909;28;20031;-79
2022/04/01 11:07:05;;;;;;;4.20;1.70;;;;;;;7.12;100.00;99506.34;5100113;28;20115;-79
2022/04/01 11:09:35;;;;;;;5.22;2.00;;;;;;;7.13;100.00;99521.00;5099859;28;20111;-79
2022/04/01 11:12:38;;;;;;;6.03;1.98;;;;;;;7.34;100.00;99511.09;5103555;28;20066;-79
2022/04/01 11:17:35;;;;;;;3.95;2.40;;;;;;;8.60;97.49;99502.94;5105893;28;20055;-80
2022/04/01 11:20:39;;;;;;;5.13;2.00;;;;;;;8.55;95.51;99506.06;5101963;28;20040;-80
2022/04/01 11:23:06;;;;;;;3.00;2.17;;;;;;;7.90;94.16;99506.03;5100294;28;20050;-81
2022/04/01 11:25:31;;;;;;;4.45;1.90;;;;;;;8.85;92.79;99501.03;5101779;28;20034;-82
2022/04/01 11:27:57;;;;;;;5.28;2.30;;;;;;;9.37;93.27;99498.75;5105365;28;20024;-80
2022/04/01 11:30:28;;;;;;;3.70;1.70;;;;;;;8.34;90.77;99485.66;5105039;28;20051;-80
2022/04/01 11:32:56;;;;;;;3.28;2.70;;;;;;;9.02;87.92;99498.31;5108105;28;20032;-81
2022/04/01 11:35:24;;;;;;;5.63;4.30;;;;;;;9.26;90.82;99487.69;5102005;28;20055;-81
2022/04/01 11:37:50;;;;;;;7.95;4.68;;;;;;;8.93;91.78;99489.69;5105475;28;20115;-80
2022/04/01 11:40:19;;;;;;;5.60;4.72;;;;;;;7.96;94.03;99496.72;5105754;28;20111;-81
2022/04/01 11:42:56;;;;;;;5.55;5.13;;;;;;;8.26;93.39;99499.59;5101653;28;20032;-80
2022/04/01 11:45:24;;;;;;;5.40;4.88;;;;;;;7.36;93.40;99493.47;5105060;28;20039;-81
2022/04/01 11:47:50;;;;;;;8.15;4.72;;;;;;;7.19;93.28;99482.22;5099461;28;20080;-80
2022/04/01 11:50:17;;;;;;;6.47;4.72;;;;;;;7.74;91.82;99501.66;5105443;28;20036;-80
2022/04/01 11:52:50;;;;;;;5.45;4.90;;;;;;;8.53;89.68;99497.56;5106084;28;20158;-80
2022/04/01 11:55:17;;;;;;;6.85;5.45;;;;;;;8.53;89.89;99476.66;5108386;28;20115;-80